sensor_id;sensor_type;location;lat;lon;timestamp;P1;durP1;ratioP1;P2;durP2;ratioP2
45224;SDS011;30963;48.696;8.764;2022-08-11T00:00:43;3.65;;;3.38;;
45224;SDS011;30963;48.696;8.764;2022-08-11T00:03:13;3.60;;;3.30;;
45224;SDS011;30963;48.696;8.764;2022-08-11T00:05:48;3.53;;;3.15;;
45224;SDS011;30963;48.696;8.764;2022-08-11T00:08:22;4.28;;;3.13;;
45224;SDS011;30963;48.696;8.764;2022-08-11T00:11:05;3.30;;;3.10;;
45224;SDS011;30963;48.696;8.764;2022-08-11T00:13:36;3.97;;;3.30;;
45224;SDS011;30963;48.696;8.764;2022-08-11T00:16:10;4.10;;;3.28;;
45224;SDS011;30963;48.696;8.764;2022-08-11T00:18:42;5.90;;;3.47;;
45224;SDS011;30963;48.696;8.764;2022-08-11T00:21:10;3.88;;;2.95;;
45224;SDS011;30963;48.696;8.764;2022-08-11T00:23:46;3.33;;;3.13;;
45224;SDS011;30963;48.696;8.764;2022-08-11T00:26:16;4.25;;;3.20;;
45224;SDS011;30963;48.696;8.764;2022-08-11T00:28:43;2.90;;;2.70;;
45224;SDS011;30963;48.696;8.764;2022-08-11T00:31:28;3.28;;;2.90;;
45224;SDS011;30963;48.696;8.764;2022-08-11T00:33:55;4.38;;;3.90;;
45224;SDS011;30963;48.696;8.764;2022-08-11T00:36:22;3.70;;;3.40;;
45224;SDS011;30963;48.696;8.764;2022-08-11T00:38:51;3.35;;;3.05;;
45224;SDS011;30963;48.696;8.764;2022-08-11T00:50:11;4.75;;;3.35;;
45224;SDS011;30963;48.696;8.764;2022-08-11T00:54:57;3.08;;;2.88;;
45224;SDS011;30963;48.696;8.764;2022-08-11T01:42:36;6.10;;;3.50;;
45224;SDS011;30963;48.696;8.764;2022-08-11T02:01:19;3.90;;;3.60;;
45224;SDS011;30963;48.696;8.764;2022-08-11T02:09:23;4.35;;;3.70;;
45224;SDS011;30963;48.696;8.764;2022-08-11T02:11:51;6.32;;;3.67;;
45224;SDS011;30963;48.696;8.764;2022-08-11T02:14:27;3.63;;;3.33;;
45224;SDS011;30963;48.696;8.764;2022-08-11T02:16:58;3.72;;;3.35;;
45224;SDS011;30963;48.696;8.764;2022-08-11T02:28:28;4.20;;;3.85;;
45224;SDS011;30963;48.696;8.764;2022-08-11T02:31:01;4.15;;;3.75;;
45224;SDS011;30963;48.696;8.764;2022-08-11T02:33:47;4.00;;;3.70;;
45224;SDS011;30963;48.696;8.764;2022-08-11T02:36:16;3.83;;;3.53;;
45224;SDS011;30963;48.696;8.764;2022-08-11T02:41:28;3.97;;;3.67;;
45224;SDS011;30963;48.696;8.764;2022-08-11T02:49:47;4.32;;;3.92;;
45224;SDS011;30963;48.696;8.764;2022-08-11T02:52:24;4.03;;;3.72;;
45224;SDS011;30963;48.696;8.764;2022-08-11T02:55:05;5.07;;;4.63;;
45224;SDS011;30963;48.696;8.764;2022-08-11T02:57:39;3.85;;;3.55;;
45224;SDS011;30963;48.696;8.764;2022-08-11T03:00:07;4.38;;;3.97;;
45224;SDS011;30963;48.696;8.764;2022-08-11T03:02:48;3.78;;;3.53;;
45224;SDS011;30963;48.696;8.764;2022-08-11T03:10:56;4.72;;;4.25;;
45224;SDS011;30963;48.696;8.764;2022-08-11T03:13:57;5.43;;;3.97;;
45224;SDS011;30963;48.696;8.764;2022-08-11T03:24:41;4.25;;;3.85;;
45224;SDS011;30963;48.696;8.764;2022-08-11T03:35:07;4.22;;;3.80;;
45224;SDS011;30963;48.696;8.764;2022-08-11T03:37:44;4.00;;;3.70;;
45224;SDS011;30963;48.696;8.764;2022-08-11T03:43:51;4.60;;;4.20;;
45224;SDS011;30963;48.696;8.764;2022-08-11T03:46:01;4.80;;;4.40;;
45224;SDS011;30963;48.696;8.764;2022-08-11T03:48:36;4.00;;;3.70;;
45224;SDS011;30963;48.696;8.764;2022-08-11T03:51:06;4.38;;;4.07;;
45224;SDS011;30963;48.696;8.764;2022-08-11T03:56:17;4.72;;;4.40;;
45224;SDS011;30963;48.696;8.764;2022-08-11T04:01:47;4.72;;;4.32;;
45224;SDS011;30963;48.696;8.764;2022-08-11T04:57:27;4.82;;;4.43;;
45224;SDS011;30963;48.696;8.764;2022-08-11T05:00:16;4.90;;;4.50;;
45224;SDS011;30963;48.696;8.764;2022-08-11T05:13:50;4.72;;;4.32;;
45224;SDS011;30963;48.696;8.764;2022-08-11T05:19:26;5.00;;;4.60;;
45224;SDS011;30963;48.696;8.764;2022-08-11T05:22:11;5.10;;;4.60;;
45224;SDS011;30963;48.696;8.764;2022-08-11T05:25:01;6.65;;;4.82;;
45224;SDS011;30963;48.696;8.764;2022-08-11T05:27:53;4.80;;;4.35;;
45224;SDS011;30963;48.696;8.764;2022-08-11T05:30:43;5.78;;;5.28;;
45224;SDS011;30963;48.696;8.764;2022-08-11T05:39:04;5.60;;;5.15;;
45224;SDS011;30963;48.696;8.764;2022-08-11T05:41:55;5.10;;;4.70;;
45224;SDS011;30963;48.696;8.764;2022-08-11T05:44:40;6.53;;;5.22;;
45224;SDS011;30963;48.696;8.764;2022-08-11T05:47:27;6.32;;;4.90;;
45224;SDS011;30963;48.696;8.764;2022-08-11T05:50:13;5.15;;;4.57;;
45224;SDS011;30963;48.696;8.764;2022-08-11T05:52:58;5.45;;;4.93;;
45224;SDS011;30963;48.696;8.764;2022-08-11T05:55:45;5.78;;;5.32;;
45224;SDS011;30963;48.696;8.764;2022-08-11T05:58:34;5.20;;;4.80;;
45224;SDS011;30963;48.696;8.764;2022-08-11T06:01:00;7.18;;;5.28;;
45224;SDS011;30963;48.696;8.764;2022-08-11T06:03:28;5.65;;;5.15;;
45224;SDS011;30963;48.696;8.764;2022-08-11T06:05:55;4.85;;;4.45;;
45224;SDS011;30963;48.696;8.764;2022-08-11T06:08:31;4.85;;;4.45;;
45224;SDS011;30963;48.696;8.764;2022-08-11T06:11:02;7.25;;;4.47;;
45224;SDS011;30963;48.696;8.764;2022-08-11T06:13:28;6.07;;;4.93;;
45224;SDS011;30963;48.696;8.764;2022-08-11T06:15:57;5.35;;;4.80;;
45224;SDS011;30963;48.696;8.764;2022-08-11T06:18:28;8.43;;;7.63;;
45224;SDS011;30963;48.696;8.764;2022-08-11T06:20:56;5.65;;;5.13;;
45224;SDS011;30963;48.696;8.764;2022-08-11T06:23:30;6.30;;;3.97;;
45224;SDS011;30963;48.696;8.764;2022-08-11T06:25:57;5.22;;;4.20;;
45224;SDS011;30963;48.696;8.764;2022-08-11T06:28:30;4.38;;;3.88;;
45224;SDS011;30963;48.696;8.764;2022-08-11T06:30:57;5.20;;;4.68;;
45224;SDS011;30963;48.696;8.764;2022-08-11T06:33:36;8.30;;;4.22;;
45224;SDS011;30963;48.696;8.764;2022-08-11T06:38:48;5.60;;;4.15;;
45224;SDS011;30963;48.696;8.764;2022-08-11T06:41:29;7.20;;;4.60;;
45224;SDS011;30963;48.696;8.764;2022-08-11T06:46:27;7.00;;;4.57;;
45224;SDS011;30963;48.696;8.764;2022-08-11T06:48:54;7.72;;;4.70;;
45224;SDS011;30963;48.696;8.764;2022-08-11T06:51:20;5.53;;;3.97;;
45224;SDS011;30963;48.696;8.764;2022-08-11T06:53:50;4.93;;;3.70;;
45224;SDS011;30963;48.696;8.764;2022-08-11T06:56:24;4.68;;;4.10;;
45224;SDS011;30963;48.696;8.764;2022-08-11T06:59:10;4.35;;;3.95;;
45224;SDS011;30963;48.696;8.764;2022-08-11T07:02:09;4.80;;;4.30;;
45224;SDS011;30963;48.696;8.764;2022-08-11T07:04:44;4.55;;;4.15;;
45224;SDS011;30963;48.696;8.764;2022-08-11T07:13:17;5.75;;;4.60;;
45224;SDS011;30963;48.696;8.764;2022-08-11T07:16:03;4.75;;;4.25;;
45224;SDS011;30963;48.696;8.764;2022-08-11T07:18:32;6.10;;;4.30;;
45224;SDS011;30963;48.696;8.764;2022-08-11T07:21:36;5.18;;;3.78;;
45224;SDS011;30963;48.696;8.764;2022-08-11T07:24:24;5.97;;;4.20;;
45224;SDS011;30963;48.696;8.764;2022-08-11T07:27:13;4.28;;;3.78;;
45224;SDS011;30963;48.696;8.764;2022-08-11T07:30:00;6.40;;;4.53;;
45224;SDS011;30963;48.696;8.764;2022-08-11T07:32:28;5.07;;;4.15;;
45224;SDS011;30963;48.696;8.764;2022-08-11T07:35:08;6.63;;;3.97;;
45224;SDS011;30963;48.696;8.764;2022-08-11T07:37:37;5.25;;;3.63;;
45224;SDS011;30963;48.696;8.764;2022-08-11T07:40:05;5.90;;;3.65;;
45224;SDS011;30963;48.696;8.764;2022-08-11T07:42:36;8.32;;;4.40;;
45224;SDS011;30963;48.696;8.764;2022-08-11T07:45:06;4.40;;;4.00;;
45224;SDS011;30963;48.696;8.764;2022-08-11T07:47:52;4.65;;;3.70;;
45224;SDS011;30963;48.696;8.764;2022-08-11T07:50:42;5.40;;;4.10;;
45224;SDS011;30963;48.696;8.764;2022-08-11T07:53:30;6.50;;;3.83;;
45224;SDS011;30963;48.696;8.764;2022-08-11T07:55:58;5.80;;;3.78;;
45224;SDS011;30963;48.696;8.764;2022-08-11T07:58:25;4.35;;;3.83;;
45224;SDS011;30963;48.696;8.764;2022-08-11T08:01:11;4.50;;;3.92;;
45224;SDS011;30963;48.696;8.764;2022-08-11T08:03:57;4.28;;;3.35;;
45224;SDS011;30963;48.696;8.764;2022-08-11T08:06:43;4.45;;;3.95;;
45224;SDS011;30963;48.696;8.764;2022-08-11T08:09:27;4.50;;;4.10;;
45224;SDS011;30963;48.696;8.764;2022-08-11T08:12:16;3.95;;;3.58;;
45224;SDS011;30963;48.696;8.764;2022-08-11T08:15:05;4.78;;;4.00;;
45224;SDS011;30963;48.696;8.764;2022-08-11T08:17:50;6.70;;;3.67;;
45224;SDS011;30963;48.696;8.764;2022-08-11T08:20:18;6.90;;;4.13;;
45224;SDS011;30963;48.696;8.764;2022-08-11T08:22:49;5.47;;;3.90;;
45224;SDS011;30963;48.696;8.764;2022-08-11T08:25:21;5.40;;;4.15;;
45224;SDS011;30963;48.696;8.764;2022-08-11T08:27:50;5.03;;;4.05;;
45224;SDS011;30963;48.696;8.764;2022-08-11T08:30:17;4.57;;;4.00;;
45224;SDS011;30963;48.696;8.764;2022-08-11T08:33:04;5.65;;;4.05;;
45224;SDS011;30963;48.696;8.764;2022-08-11T08:35:31;5.50;;;4.43;;
45224;SDS011;30963;48.696;8.764;2022-08-11T08:37:57;4.70;;;3.90;;
45224;SDS011;30963;48.696;8.764;2022-08-11T08:40:24;6.95;;;3.92;;
45224;SDS011;30963;48.696;8.764;2022-08-11T08:42:54;3.83;;;3.33;;
45224;SDS011;30963;48.696;8.764;2022-08-11T08:45:21;5.05;;;4.40;;
45224;SDS011;30963;48.696;8.764;2022-08-11T08:47:59;5.15;;;4.53;;
45224;SDS011;30963;48.696;8.764;2022-08-11T08:50:28;4.32;;;3.78;;
45224;SDS011;30963;48.696;8.764;2022-08-11T08:53:16;4.28;;;3.78;;
45224;SDS011;30963;48.696;8.764;2022-08-11T08:55:45;4.60;;;4.20;;
45224;SDS011;30963;48.696;8.764;2022-08-11T08:58:11;3.78;;;3.47;;
45224;SDS011;30963;48.696;8.764;2022-08-11T09:00:39;3.95;;;3.40;;
45224;SDS011;30963;48.696;8.764;2022-08-11T09:03:06;5.28;;;3.70;;
45224;SDS011;30963;48.696;8.764;2022-08-11T09:05:34;4.25;;;3.67;;
45224;SDS011;30963;48.696;8.764;2022-08-11T09:08:03;4.20;;;3.13;;
45224;SDS011;30963;48.696;8.764;2022-08-11T09:10:29;3.78;;;3.28;;
45224;SDS011;30963;48.696;8.764;2022-08-11T09:12:55;3.65;;;3.45;;
45224;SDS011;30963;48.696;8.764;2022-08-11T09:15:22;6.25;;;3.83;;
45224;SDS011;30963;48.696;8.764;2022-08-11T09:17:53;4.70;;;3.58;;
45224;SDS011;30963;48.696;8.764;2022-08-11T09:20:27;4.95;;;3.38;;
45224;SDS011;30963;48.696;8.764;2022-08-11T09:22:58;4.55;;;3.17;;
45224;SDS011;30963;48.696;8.764;2022-08-11T09:25:47;3.60;;;3.30;;
45224;SDS011;30963;48.696;8.764;2022-08-11T09:28:33;4.00;;;3.53;;
45224;SDS011;30963;48.696;8.764;2022-08-11T09:31:00;3.53;;;3.30;;
45224;SDS011;30963;48.696;8.764;2022-08-11T09:33:27;4.40;;;3.35;;
45224;SDS011;30963;48.696;8.764;2022-08-11T09:35:55;5.25;;;3.17;;
45224;SDS011;30963;48.696;8.764;2022-08-11T09:38:23;3.95;;;3.65;;
45224;SDS011;30963;48.696;8.764;2022-08-11T09:41:09;3.92;;;3.50;;
45224;SDS011;30963;48.696;8.764;2022-08-11T09:43:42;4.20;;;3.20;;
45224;SDS011;30963;48.696;8.764;2022-08-11T09:46:27;4.55;;;3.45;;
45224;SDS011;30963;48.696;8.764;2022-08-11T09:48:56;3.83;;;3.17;;
45224;SDS011;30963;48.696;8.764;2022-08-11T09:51:23;3.50;;;3.20;;
45224;SDS011;30963;48.696;8.764;2022-08-11T09:53:51;4.75;;;3.20;;
45224;SDS011;30963;48.696;8.764;2022-08-11T09:56:21;4.68;;;3.47;;
45224;SDS011;30963;48.696;8.764;2022-08-11T09:59:06;4.57;;;3.63;;
45224;SDS011;30963;48.696;8.764;2022-08-11T10:01:33;4.03;;;3.60;;
45224;SDS011;30963;48.696;8.764;2022-08-11T10:04:05;3.60;;;3.30;;
45224;SDS011;30963;48.696;8.764;2022-08-11T10:06:34;3.50;;;3.17;;
45224;SDS011;30963;48.696;8.764;2022-08-11T10:09:22;3.97;;;3.50;;
45224;SDS011;30963;48.696;8.764;2022-08-11T10:11:57;3.70;;;3.40;;
45224;SDS011;30963;48.696;8.764;2022-08-11T10:14:27;4.93;;;4.07;;
45224;SDS011;30963;48.696;8.764;2022-08-11T10:17:13;6.00;;;4.05;;
45224;SDS011;30963;48.696;8.764;2022-08-11T10:19:42;3.83;;;3.63;;
45224;SDS011;30963;48.696;8.764;2022-08-11T10:22:10;4.13;;;3.28;;
45224;SDS011;30963;48.696;8.764;2022-08-11T10:24:55;3.95;;;3.65;;
45224;SDS011;30963;48.696;8.764;2022-08-11T10:27:41;3.60;;;3.30;;
45224;SDS011;30963;48.696;8.764;2022-08-11T10:30:13;4.25;;;3.47;;
45224;SDS011;30963;48.696;8.764;2022-08-11T10:32:57;5.55;;;3.65;;
45224;SDS011;30963;48.696;8.764;2022-08-11T10:35:42;5.20;;;3.47;;
45224;SDS011;30963;48.696;8.764;2022-08-11T10:38:11;5.18;;;3.83;;
45224;SDS011;30963;48.696;8.764;2022-08-11T10:40:40;5.45;;;3.63;;
45224;SDS011;30963;48.696;8.764;2022-08-11T10:43:10;3.67;;;3.38;;
45224;SDS011;30963;48.696;8.764;2022-08-11T10:45:43;5.45;;;3.55;;
45224;SDS011;30963;48.696;8.764;2022-08-11T10:48:29;5.63;;;3.22;;
45224;SDS011;30963;48.696;8.764;2022-08-11T10:50:56;4.68;;;3.70;;
45224;SDS011;30963;48.696;8.764;2022-08-11T10:53:42;4.97;;;3.72;;
45224;SDS011;30963;48.696;8.764;2022-08-11T10:56:28;3.63;;;3.30;;
45224;SDS011;30963;48.696;8.764;2022-08-11T10:59:13;3.72;;;3.42;;
45224;SDS011;30963;48.696;8.764;2022-08-11T11:01:39;4.43;;;3.42;;
45224;SDS011;30963;48.696;8.764;2022-08-11T11:06:49;4.78;;;3.30;;
45224;SDS011;30963;48.696;8.764;2022-08-11T11:09:19;3.80;;;3.47;;
45224;SDS011;30963;48.696;8.764;2022-08-11T11:11:53;3.90;;;3.53;;
45224;SDS011;30963;48.696;8.764;2022-08-11T11:14:40;3.75;;;3.15;;
45224;SDS011;30963;48.696;8.764;2022-08-11T11:17:27;4.28;;;3.40;;
45224;SDS011;30963;48.696;8.764;2022-08-11T11:20:13;4.68;;;3.10;;
45224;SDS011;30963;48.696;8.764;2022-08-11T11:22:41;4.22;;;3.15;;
45224;SDS011;30963;48.696;8.764;2022-08-11T11:25:20;3.47;;;3.08;;
45224;SDS011;30963;48.696;8.764;2022-08-11T11:27:59;3.75;;;3.20;;
45224;SDS011;30963;48.696;8.764;2022-08-11T11:30:34;6.05;;;3.33;;
45224;SDS011;30963;48.696;8.764;2022-08-11T11:38:18;4.07;;;3.08;;
45224;SDS011;30963;48.696;8.764;2022-08-11T11:40:45;5.22;;;3.10;;
45224;SDS011;30963;48.696;8.764;2022-08-11T11:43:31;3.88;;;3.47;;
45224;SDS011;30963;48.696;8.764;2022-08-11T11:45:58;3.83;;;3.55;;
45224;SDS011;30963;48.696;8.764;2022-08-11T11:48:24;4.10;;;3.25;;
45224;SDS011;30963;48.696;8.764;2022-08-11T11:50:52;3.38;;;3.10;;
45224;SDS011;30963;48.696;8.764;2022-08-11T11:53:22;3.72;;;3.42;;
45224;SDS011;30963;48.696;8.764;2022-08-11T11:55:50;3.72;;;3.30;;
45224;SDS011;30963;48.696;8.764;2022-08-11T11:58:17;3.50;;;3.30;;
45224;SDS011;30963;48.696;8.764;2022-08-11T12:01:02;3.92;;;3.30;;
45224;SDS011;30963;48.696;8.764;2022-08-11T12:03:41;3.58;;;3.28;;
45224;SDS011;30963;48.696;8.764;2022-08-11T12:06:08;4.10;;;3.80;;
45224;SDS011;30963;48.696;8.764;2022-08-11T12:08:41;4.25;;;3.58;;
45224;SDS011;30963;48.696;8.764;2022-08-11T12:11:09;4.00;;;3.70;;
45224;SDS011;30963;48.696;8.764;2022-08-11T12:13:54;4.55;;;3.60;;
45224;SDS011;30963;48.696;8.764;2022-08-11T12:16:23;5.75;;;3.80;;
45224;SDS011;30963;48.696;8.764;2022-08-11T12:18:51;4.45;;;3.45;;
45224;SDS011;30963;48.696;8.764;2022-08-11T12:21:19;4.57;;;3.65;;
45224;SDS011;30963;48.696;8.764;2022-08-11T12:23:46;3.78;;;3.30;;
45224;SDS011;30963;48.696;8.764;2022-08-11T12:26:32;3.58;;;3.28;;
45224;SDS011;30963;48.696;8.764;2022-08-11T12:29:13;3.95;;;3.55;;
45224;SDS011;30963;48.696;8.764;2022-08-11T12:31:43;4.75;;;3.80;;
45224;SDS011;30963;48.696;8.764;2022-08-11T12:34:14;4.22;;;3.20;;
45224;SDS011;30963;48.696;8.764;2022-08-11T12:36:58;3.85;;;3.45;;
45224;SDS011;30963;48.696;8.764;2022-08-11T12:39:47;5.00;;;3.60;;
45224;SDS011;30963;48.696;8.764;2022-08-11T12:42:53;3.45;;;3.25;;
45224;SDS011;30963;48.696;8.764;2022-08-11T12:45:38;3.63;;;3.42;;
45224;SDS011;30963;48.696;8.764;2022-08-11T12:48:06;4.95;;;3.65;;
45224;SDS011;30963;48.696;8.764;2022-08-11T12:50:54;3.33;;;3.05;;
45224;SDS011;30963;48.696;8.764;2022-08-11T12:53:42;6.60;;;3.90;;
45224;SDS011;30963;48.696;8.764;2022-08-11T12:56:12;5.45;;;3.25;;
45224;SDS011;30963;48.696;8.764;2022-08-11T12:58:56;4.93;;;3.17;;
45224;SDS011;30963;48.696;8.764;2022-08-11T13:01:42;3.80;;;3.50;;
45224;SDS011;30963;48.696;8.764;2022-08-11T13:04:27;3.65;;;3.40;;
45224;SDS011;30963;48.696;8.764;2022-08-11T13:07:13;5.90;;;3.53;;
45224;SDS011;30963;48.696;8.764;2022-08-11T13:09:42;3.35;;;3.05;;
45224;SDS011;30963;48.696;8.764;2022-08-11T13:12:08;4.78;;;3.53;;
45224;SDS011;30963;48.696;8.764;2022-08-11T13:14:53;4.65;;;2.97;;
45224;SDS011;30963;48.696;8.764;2022-08-11T13:17:22;4.95;;;3.58;;
45224;SDS011;30963;48.696;8.764;2022-08-11T13:19:50;3.30;;;3.00;;
45224;SDS011;30963;48.696;8.764;2022-08-11T13:22:19;5.63;;;3.25;;
45224;SDS011;30963;48.696;8.764;2022-08-11T13:24:49;5.75;;;3.33;;
45224;SDS011;30963;48.696;8.764;2022-08-11T13:27:18;4.55;;;2.92;;
45224;SDS011;30963;48.696;8.764;2022-08-11T13:29:45;4.78;;;3.60;;
45224;SDS011;30963;48.696;8.764;2022-08-11T13:32:11;3.70;;;3.17;;
45224;SDS011;30963;48.696;8.764;2022-08-11T13:34:40;4.60;;;3.60;;
45224;SDS011;30963;48.696;8.764;2022-08-11T13:37:09;3.28;;;2.97;;
45224;SDS011;30963;48.696;8.764;2022-08-11T13:39:37;3.55;;;3.30;;
45224;SDS011;30963;48.696;8.764;2022-08-11T13:42:07;4.25;;;3.28;;
45224;SDS011;30963;48.696;8.764;2022-08-11T13:44:34;3.90;;;3.20;;
45224;SDS011;30963;48.696;8.764;2022-08-11T13:47:05;5.10;;;3.60;;
45224;SDS011;30963;48.696;8.764;2022-08-11T13:49:35;4.60;;;3.22;;
45224;SDS011;30963;48.696;8.764;2022-08-11T13:52:02;3.70;;;3.40;;
45224;SDS011;30963;48.696;8.764;2022-08-11T13:54:30;3.50;;;3.28;;
45224;SDS011;30963;48.696;8.764;2022-08-11T13:56:59;3.25;;;3.00;;
45224;SDS011;30963;48.696;8.764;2022-08-11T13:59:25;4.10;;;3.10;;
45224;SDS011;30963;48.696;8.764;2022-08-11T14:01:55;3.55;;;3.30;;
45224;SDS011;30963;48.696;8.764;2022-08-11T14:06:49;3.50;;;3.20;;
45224;SDS011;30963;48.696;8.764;2022-08-11T14:09:19;5.10;;;3.25;;
45224;SDS011;30963;48.696;8.764;2022-08-11T14:11:49;5.22;;;3.17;;
45224;SDS011;30963;48.696;8.764;2022-08-11T14:14:34;3.40;;;3.10;;
45224;SDS011;30963;48.696;8.764;2022-08-11T14:17:03;3.47;;;3.17;;
45224;SDS011;30963;48.696;8.764;2022-08-11T14:19:31;3.53;;;3.10;;
45224;SDS011;30963;48.696;8.764;2022-08-11T14:21:58;4.43;;;3.40;;
45224;SDS011;30963;48.696;8.764;2022-08-11T14:24:33;3.45;;;3.15;;
45224;SDS011;30963;48.696;8.764;2022-08-11T14:26:59;5.00;;;3.28;;
45224;SDS011;30963;48.696;8.764;2022-08-11T14:29:26;3.85;;;3.45;;
45224;SDS011;30963;48.696;8.764;2022-08-11T14:31:59;3.53;;;3.22;;
45224;SDS011;30963;48.696;8.764;2022-08-11T14:34:27;5.05;;;3.00;;
45224;SDS011;30963;48.696;8.764;2022-08-11T14:37:27;3.47;;;3.17;;
45224;SDS011;30963;48.696;8.764;2022-08-11T14:39:47;3.83;;;3.45;;
45224;SDS011;30963;48.696;8.764;2022-08-11T14:42:15;3.65;;;2.90;;
45224;SDS011;30963;48.696;8.764;2022-08-11T14:45:03;3.25;;;2.95;;
45224;SDS011;30963;48.696;8.764;2022-08-11T14:47:50;4.47;;;3.35;;
45224;SDS011;30963;48.696;8.764;2022-08-11T14:50:17;5.10;;;3.20;;
45224;SDS011;30963;48.696;8.764;2022-08-11T14:52:57;3.13;;;2.92;;
45224;SDS011;30963;48.696;8.764;2022-08-11T14:55:24;3.45;;;2.95;;
45224;SDS011;30963;48.696;8.764;2022-08-11T14:58:10;3.35;;;3.05;;
45224;SDS011;30963;48.696;8.764;2022-08-11T15:00:37;4.22;;;3.03;;
45224;SDS011;30963;48.696;8.764;2022-08-11T15:03:04;3.95;;;3.40;;
45224;SDS011;30963;48.696;8.764;2022-08-11T15:08:18;3.35;;;3.15;;
45224;SDS011;30963;48.696;8.764;2022-08-11T15:10:45;3.35;;;3.10;;
45224;SDS011;30963;48.696;8.764;2022-08-11T15:13:11;5.07;;;3.03;;
45224;SDS011;30963;48.696;8.764;2022-08-11T15:15:42;3.60;;;3.20;;
45224;SDS011;30963;48.696;8.764;2022-08-11T15:18:27;3.45;;;3.22;;
45224;SDS011;30963;48.696;8.764;2022-08-11T15:20:53;5.72;;;3.20;;
45224;SDS011;30963;48.696;8.764;2022-08-11T15:23:39;4.63;;;3.30;;
45224;SDS011;30963;48.696;8.764;2022-08-11T15:26:27;3.45;;;2.65;;
45224;SDS011;30963;48.696;8.764;2022-08-11T15:29:13;3.30;;;3.00;;
45224;SDS011;30963;48.696;8.764;2022-08-11T15:32:01;3.88;;;3.13;;
45224;SDS011;30963;48.696;8.764;2022-08-11T15:34:50;3.53;;;3.20;;
45224;SDS011;30963;48.696;8.764;2022-08-11T15:37:36;3.40;;;3.10;;
45224;SDS011;30963;48.696;8.764;2022-08-11T15:45:52;4.50;;;3.33;;
45224;SDS011;30963;48.696;8.764;2022-08-11T15:48:33;3.05;;;2.78;;
45224;SDS011;30963;48.696;8.764;2022-08-11T15:51:08;3.25;;;2.78;;
45224;SDS011;30963;48.696;8.764;2022-08-11T15:53:41;3.20;;;2.90;;
45224;SDS011;30963;48.696;8.764;2022-08-11T15:56:08;3.33;;;3.00;;
45224;SDS011;30963;48.696;8.764;2022-08-11T15:58:37;4.32;;;3.03;;
45224;SDS011;30963;48.696;8.764;2022-08-11T16:01:22;3.15;;;2.92;;
45224;SDS011;30963;48.696;8.764;2022-08-11T16:04:09;3.08;;;2.88;;
45224;SDS011;30963;48.696;8.764;2022-08-11T16:09:04;3.40;;;3.03;;
45224;SDS011;30963;48.696;8.764;2022-08-11T16:11:33;3.20;;;2.97;;
45224;SDS011;30963;48.696;8.764;2022-08-11T16:14:01;3.42;;;3.13;;
45224;SDS011;30963;48.696;8.764;2022-08-11T16:16:48;3.08;;;2.78;;
45224;SDS011;30963;48.696;8.764;2022-08-11T16:19:18;3.53;;;3.22;;
45224;SDS011;30963;48.696;8.764;2022-08-11T16:21:44;3.00;;;2.70;;
45224;SDS011;30963;48.696;8.764;2022-08-11T16:24:14;3.13;;;2.92;;
45224;SDS011;30963;48.696;8.764;2022-08-11T16:26:41;4.13;;;3.13;;
45224;SDS011;30963;48.696;8.764;2022-08-11T16:29:09;3.05;;;2.85;;
45224;SDS011;30963;48.696;8.764;2022-08-11T16:31:35;3.38;;;3.17;;
45224;SDS011;30963;48.696;8.764;2022-08-11T16:34:04;4.72;;;3.25;;
45224;SDS011;30963;48.696;8.764;2022-08-11T16:36:56;3.25;;;3.03;;
45224;SDS011;30963;48.696;8.764;2022-08-11T16:39:42;3.40;;;3.00;;
45224;SDS011;30963;48.696;8.764;2022-08-11T16:42:10;3.33;;;3.03;;
45224;SDS011;30963;48.696;8.764;2022-08-11T16:44:55;4.20;;;3.15;;
45224;SDS011;30963;48.696;8.764;2022-08-11T16:47:42;3.53;;;2.95;;
45224;SDS011;30963;48.696;8.764;2022-08-11T16:50:09;3.92;;;3.08;;
45224;SDS011;30963;48.696;8.764;2022-08-11T16:52:35;3.47;;;3.13;;
45224;SDS011;30963;48.696;8.764;2022-08-11T16:55:01;3.65;;;3.25;;
45224;SDS011;30963;48.696;8.764;2022-08-11T16:57:29;4.90;;;2.85;;
45224;SDS011;30963;48.696;8.764;2022-08-11T17:00:15;3.42;;;3.10;;
45224;SDS011;30963;48.696;8.764;2022-08-11T17:02:51;3.67;;;3.30;;
45224;SDS011;30963;48.696;8.764;2022-08-11T17:05:57;6.10;;;3.20;;
45224;SDS011;30963;48.696;8.764;2022-08-11T17:08:49;3.30;;;3.03;;
45224;SDS011;30963;48.696;8.764;2022-08-11T17:11:42;3.58;;;2.90;;
45224;SDS011;30963;48.696;8.764;2022-08-11T17:14:30;3.65;;;3.05;;
45224;SDS011;30963;48.696;8.764;2022-08-11T17:16:57;3.17;;;2.88;;
45224;SDS011;30963;48.696;8.764;2022-08-11T17:19:27;3.15;;;2.90;;
45224;SDS011;30963;48.696;8.764;2022-08-11T17:21:59;3.75;;;3.30;;
45224;SDS011;30963;48.696;8.764;2022-08-11T17:24:44;4.40;;;3.33;;
45224;SDS011;30963;48.696;8.764;2022-08-11T17:27:15;5.05;;;3.30;;
45224;SDS011;30963;48.696;8.764;2022-08-11T17:29:49;4.18;;;3.30;;
45224;SDS011;30963;48.696;8.764;2022-08-11T17:32:16;3.58;;;3.28;;
45224;SDS011;30963;48.696;8.764;2022-08-11T17:35:02;4.25;;;3.25;;
45224;SDS011;30963;48.696;8.764;2022-08-11T17:37:48;3.53;;;3.33;;
45224;SDS011;30963;48.696;8.764;2022-08-11T17:40:16;3.40;;;3.10;;
45224;SDS011;30963;48.696;8.764;2022-08-11T17:42:45;3.70;;;3.30;;
45224;SDS011;30963;48.696;8.764;2022-08-11T17:45:30;3.72;;;3.42;;
45224;SDS011;30963;48.696;8.764;2022-08-11T17:48:15;3.67;;;3.40;;
45224;SDS011;30963;48.696;8.764;2022-08-11T17:51:06;4.45;;;3.30;;
45224;SDS011;30963;48.696;8.764;2022-08-11T17:53:37;3.20;;;2.90;;
45224;SDS011;30963;48.696;8.764;2022-08-11T17:56:22;3.60;;;3.30;;
45224;SDS011;30963;48.696;8.764;2022-08-11T17:59:08;4.90;;;3.40;;
45224;SDS011;30963;48.696;8.764;2022-08-11T18:01:53;6.32;;;3.58;;
45224;SDS011;30963;48.696;8.764;2022-08-11T18:04:20;4.10;;;3.33;;
45224;SDS011;30963;48.696;8.764;2022-08-11T18:06:47;4.22;;;3.53;;
45224;SDS011;30963;48.696;8.764;2022-08-11T18:09:15;5.30;;;4.80;;
45224;SDS011;30963;48.696;8.764;2022-08-11T18:12:00;3.45;;;3.15;;
45224;SDS011;30963;48.696;8.764;2022-08-11T18:14:46;3.55;;;3.20;;
45224;SDS011;30963;48.696;8.764;2022-08-11T18:17:32;3.92;;;3.15;;
45224;SDS011;30963;48.696;8.764;2022-08-11T18:20:17;3.30;;;3.00;;
45224;SDS011;30963;48.696;8.764;2022-08-11T18:23:04;3.35;;;3.15;;
45224;SDS011;30963;48.696;8.764;2022-08-11T18:25:50;3.47;;;3.17;;
45224;SDS011;30963;48.696;8.764;2022-08-11T18:28:37;8.45;;;3.80;;
45224;SDS011;30963;48.696;8.764;2022-08-11T18:31:25;9.05;;;3.63;;
45224;SDS011;30963;48.696;8.764;2022-08-11T18:34:11;3.92;;;3.20;;
45224;SDS011;30963;48.696;8.764;2022-08-11T18:37:02;7.80;;;2.97;;
45224;SDS011;30963;48.696;8.764;2022-08-11T18:39:49;6.00;;;3.40;;
45224;SDS011;30963;48.696;8.764;2022-08-11T18:42:36;5.95;;;3.40;;
45224;SDS011;30963;48.696;8.764;2022-08-11T18:45:23;3.92;;;3.42;;
45224;SDS011;30963;48.696;8.764;2022-08-11T18:48:10;4.57;;;3.35;;
45224;SDS011;30963;48.696;8.764;2022-08-11T18:50:55;3.50;;;3.28;;
45224;SDS011;30963;48.696;8.764;2022-08-11T18:53:43;9.27;;;3.65;;
45224;SDS011;30963;48.696;8.764;2022-08-11T18:56:28;3.67;;;3.20;;
45224;SDS011;30963;48.696;8.764;2022-08-11T18:59:14;7.03;;;3.60;;
45224;SDS011;30963;48.696;8.764;2022-08-11T19:02:01;6.10;;;3.60;;
45224;SDS011;30963;48.696;8.764;2022-08-11T19:04:46;4.03;;;3.67;;
45224;SDS011;30963;48.696;8.764;2022-08-11T19:07:31;3.72;;;3.33;;
45224;SDS011;30963;48.696;8.764;2022-08-11T19:10:17;5.35;;;3.80;;
45224;SDS011;30963;48.696;8.764;2022-08-11T19:13:02;4.38;;;4.00;;
45224;SDS011;30963;48.696;8.764;2022-08-11T19:15:48;3.70;;;3.40;;
45224;SDS011;30963;48.696;8.764;2022-08-11T19:18:33;5.40;;;3.88;;
45224;SDS011;30963;48.696;8.764;2022-08-11T19:21:19;3.90;;;3.50;;
45224;SDS011;30963;48.696;8.764;2022-08-11T19:24:04;4.85;;;4.05;;
45224;SDS011;30963;48.696;8.764;2022-08-11T19:26:50;5.93;;;5.38;;
45224;SDS011;30963;48.696;8.764;2022-08-11T19:29:36;5.60;;;5.10;;
45224;SDS011;30963;48.696;8.764;2022-08-11T19:32:24;7.90;;;5.07;;